sensor_id;sensor_type;location;lat;lon;timestamp;temperature;humidity
45042;DHT22;30779;52.096;4.410;2022-08-01T00:01:45;19.20;99.90
45042;DHT22;30779;52.096;4.410;2022-08-01T00:04:46;19.20;99.90
45042;DHT22;30779;52.096;4.410;2022-08-01T00:07:46;19.20;99.90
45042;DHT22;30779;52.096;4.410;2022-08-01T00:10:47;19.20;99.90
45042;DHT22;30779;52.096;4.410;2022-08-01T00:13:48;19.20;99.90
45042;DHT22;30779;52.096;4.410;2022-08-01T00:16:48;19.10;99.90
45042;DHT22;30779;52.096;4.410;2022-08-01T00:19:49;19.00;99.90
45042;DHT22;30779;52.096;4.410;2022-08-01T00:22:50;19.00;99.90
45042;DHT22;30779;52.096;4.410;2022-08-01T00:25:50;18.90;99.90
45042;DHT22;30779;52.096;4.410;2022-08-01T00:28:51;18.90;99.90
45042;DHT22;30779;52.096;4.410;2022-08-01T00:31:51;19.00;99.90
45042;DHT22;30779;52.096;4.410;2022-08-01T00:34:52;19.00;99.90
45042;DHT22;30779;52.096;4.410;2022-08-01T00:37:53;19.00;99.90
45042;DHT22;30779;52.096;4.410;2022-08-01T00:40:53;19.00;99.90
45042;DHT22;30779;52.096;4.410;2022-08-01T00:43:54;19.00;99.90
45042;DHT22;30779;52.096;4.410;2022-08-01T00:46:55;19.00;99.90
45042;DHT22;30779;52.096;4.410;2022-08-01T00:49:55;19.00;99.90
45042;DHT22;30779;52.096;4.410;2022-08-01T00:52:57;18.90;99.90
45042;DHT22;30779;52.096;4.410;2022-08-01T00:55:59;18.80;99.90
45042;DHT22;30779;52.096;4.410;2022-08-01T00:59:00;18.80;99.90
45042;DHT22;30779;52.096;4.410;2022-08-01T01:02:01;18.70;99.90
45042;DHT22;30779;52.096;4.410;2022-08-01T01:05:02;18.70;99.90
45042;DHT22;30779;52.096;4.410;2022-08-01T01:08:08;18.60;99.90
45042;DHT22;30779;52.096;4.410;2022-08-01T01:11:19;18.50;99.90
45042;DHT22;30779;52.096;4.410;2022-08-01T01:14:30;18.50;99.90
45042;DHT22;30779;52.096;4.410;2022-08-01T01:17:52;18.40;99.90
45042;DHT22;30779;52.096;4.410;2022-08-01T01:21:23;18.40;99.90
45042;DHT22;30779;52.096;4.410;2022-08-01T01:31:11;18.40;99.90
45042;DHT22;30779;52.096;4.410;2022-08-01T01:34:15;18.40;99.90
45042;DHT22;30779;52.096;4.410;2022-08-01T01:37:23;18.40;99.90
45042;DHT22;30779;52.096;4.410;2022-08-01T01:40:25;18.50;99.90
45042;DHT22;30779;52.096;4.410;2022-08-01T01:43:27;18.50;99.90
45042;DHT22;30779;52.096;4.410;2022-08-01T01:46:29;18.50;99.90
45042;DHT22;30779;52.096;4.410;2022-08-01T01:49:32;18.50;99.90
45042;DHT22;30779;52.096;4.410;2022-08-01T01:52:33;18.50;99.90
45042;DHT22;30779;52.096;4.410;2022-08-01T01:55:35;18.50;99.90
45042;DHT22;30779;52.096;4.410;2022-08-01T01:58:38;18.50;99.90
45042;DHT22;30779;52.096;4.410;2022-08-01T02:01:39;18.50;99.90
45042;DHT22;30779;52.096;4.410;2022-08-01T02:04:42;18.50;99.90
45042;DHT22;30779;52.096;4.410;2022-08-01T02:07:43;18.50;99.90
45042;DHT22;30779;52.096;4.410;2022-08-01T02:10:45;18.50;99.90
45042;DHT22;30779;52.096;4.410;2022-08-01T02:14:05;18.50;99.90
45042;DHT22;30779;52.096;4.410;2022-08-01T02:17:12;18.50;99.90
45042;DHT22;30779;52.096;4.410;2022-08-01T02:20:16;18.50;99.90
45042;DHT22;30779;52.096;4.410;2022-08-01T02:23:17;18.50;99.90
45042;DHT22;30779;52.096;4.410;2022-08-01T02:26:19;18.40;99.90
45042;DHT22;30779;52.096;4.410;2022-08-01T02:29:26;18.50;99.90
45042;DHT22;30779;52.096;4.410;2022-08-01T02:35:41;18.40;99.90
45042;DHT22;30779;52.096;4.410;2022-08-01T02:38:44;18.50;99.90
45042;DHT22;30779;52.096;4.410;2022-08-01T02:41:48;18.50;99.90
45042;DHT22;30779;52.096;4.410;2022-08-01T02:44:52;18.60;99.90
45042;DHT22;30779;52.096;4.410;2022-08-01T02:47:59;18.60;99.90
45042;DHT22;30779;52.096;4.410;2022-08-01T02:51:01;18.70;99.90
45042;DHT22;30779;52.096;4.410;2022-08-01T02:54:05;18.70;99.90
45042;DHT22;30779;52.096;4.410;2022-08-01T02:57:06;18.70;99.90
45042;DHT22;30779;52.096;4.410;2022-08-01T03:00:08;18.70;99.90
45042;DHT22;30779;52.096;4.410;2022-08-01T03:03:10;18.70;99.90
45042;DHT22;30779;52.096;4.410;2022-08-01T03:06:11;18.60;99.90
45042;DHT22;30779;52.096;4.410;2022-08-01T03:09:13;18.70;99.90
45042;DHT22;30779;52.096;4.410;2022-08-01T03:12:18;18.70;99.90
45042;DHT22;30779;52.096;4.410;2022-08-01T03:15:22;18.70;99.90
45042;DHT22;30779;52.096;4.410;2022-08-01T03:18:25;18.70;99.90
45042;DHT22;30779;52.096;4.410;2022-08-01T03:21:28;18.70;99.90
45042;DHT22;30779;52.096;4.410;2022-08-01T03:24:31;18.70;99.90
45042;DHT22;30779;52.096;4.410;2022-08-01T03:27:32;18.80;99.90
45042;DHT22;30779;52.096;4.410;2022-08-01T03:30:36;18.80;99.90
45042;DHT22;30779;52.096;4.410;2022-08-01T03:33:38;18.80;99.90
45042;DHT22;30779;52.096;4.410;2022-08-01T03:36:49;18.80;99.90
45042;DHT22;30779;52.096;4.410;2022-08-01T03:39:58;18.80;99.90
45042;DHT22;30779;52.096;4.410;2022-08-01T03:43:21;18.80;99.90
45042;DHT22;30779;52.096;4.410;2022-08-01T03:46:30;18.90;99.90
45042;DHT22;30779;52.096;4.410;2022-08-01T03:49:43;18.80;99.90
45042;DHT22;30779;52.096;4.410;2022-08-01T03:52:46;18.80;99.90
45042;DHT22;30779;52.096;4.410;2022-08-01T03:55:48;18.70;99.90
45042;DHT22;30779;52.096;4.410;2022-08-01T03:58:50;18.80;99.90
45042;DHT22;30779;52.096;4.410;2022-08-01T04:01:51;18.70;99.90
45042;DHT22;30779;52.096;4.410;2022-08-01T04:04:53;18.70;99.90
45042;DHT22;30779;52.096;4.410;2022-08-01T04:07:54;18.70;99.90
45042;DHT22;30779;52.096;4.410;2022-08-01T04:10:58;18.70;99.90
45042;DHT22;30779;52.096;4.410;2022-08-01T04:13:58;18.70;99.90
45042;DHT22;30779;52.096;4.410;2022-08-01T04:16:59;18.70;99.90
45042;DHT22;30779;52.096;4.410;2022-08-01T04:20:00;18.70;99.90
45042;DHT22;30779;52.096;4.410;2022-08-01T04:23:01;18.70;99.90
45042;DHT22;30779;52.096;4.410;2022-08-01T04:26:02;18.80;99.90
45042;DHT22;30779;52.096;4.410;2022-08-01T04:29:05;18.70;99.90
45042;DHT22;30779;52.096;4.410;2022-08-01T04:32:08;18.70;99.90
45042;DHT22;30779;52.096;4.410;2022-08-01T04:35:12;18.80;99.90
45042;DHT22;30779;52.096;4.410;2022-08-01T04:38:22;18.80;99.90
45042;DHT22;30779;52.096;4.410;2022-08-01T04:41:25;18.80;99.90
45042;DHT22;30779;52.096;4.410;2022-08-01T04:44:26;18.80;99.90
45042;DHT22;30779;52.096;4.410;2022-08-01T04:47:29;18.80;99.90
45042;DHT22;30779;52.096;4.410;2022-08-01T04:50:30;18.80;99.90
45042;DHT22;30779;52.096;4.410;2022-08-01T04:53:32;18.80;99.90
45042;DHT22;30779;52.096;4.410;2022-08-01T04:56:32;18.70;99.90
45042;DHT22;30779;52.096;4.410;2022-08-01T04:59:36;18.50;99.90
45042;DHT22;30779;52.096;4.410;2022-08-01T05:02:41;18.50;99.90
45042;DHT22;30779;52.096;4.410;2022-08-01T05:05:42;18.50;99.90
45042;DHT22;30779;52.096;4.410;2022-08-01T05:08:42;18.50;99.90
45042;DHT22;30779;52.096;4.410;2022-08-01T05:11:43;18.40;99.90
45042;DHT22;30779;52.096;4.410;2022-08-01T05:14:44;18.40;99.90
45042;DHT22;30779;52.096;4.410;2022-08-01T05:17:44;18.50;99.90
45042;DHT22;30779;52.096;4.410;2022-08-01T05:20:45;18.30;99.90
45042;DHT22;30779;52.096;4.410;2022-08-01T05:23:47;18.20;99.90
45042;DHT22;30779;52.096;4.410;2022-08-01T05:26:49;18.10;99.90
45042;DHT22;30779;52.096;4.410;2022-08-01T05:29:49;18.10;99.90
45042;DHT22;30779;52.096;4.410;2022-08-01T05:32:50;18.10;99.90
45042;DHT22;30779;52.096;4.410;2022-08-01T05:35:51;18.10;99.90
45042;DHT22;30779;52.096;4.410;2022-08-01T05:38:52;18.00;99.90
45042;DHT22;30779;52.096;4.410;2022-08-01T05:41:52;18.00;99.90
45042;DHT22;30779;52.096;4.410;2022-08-01T05:44:53;18.10;99.90
45042;DHT22;30779;52.096;4.410;2022-08-01T05:47:53;18.10;99.90
45042;DHT22;30779;52.096;4.410;2022-08-01T05:50:54;18.00;99.90
45042;DHT22;30779;52.096;4.410;2022-08-01T05:53:55;18.00;99.90
45042;DHT22;30779;52.096;4.410;2022-08-01T05:56:56;18.00;99.90
45042;DHT22;30779;52.096;4.410;2022-08-01T06:00:00;18.00;99.90
45042;DHT22;30779;52.096;4.410;2022-08-01T06:03:00;18.00;99.90
45042;DHT22;30779;52.096;4.410;2022-08-01T06:06:01;18.00;99.90
45042;DHT22;30779;52.096;4.410;2022-08-01T06:09:02;18.00;99.90
45042;DHT22;30779;52.096;4.410;2022-08-01T06:12:03;18.10;99.90
45042;DHT22;30779;52.096;4.410;2022-08-01T06:15:07;18.00;99.90
45042;DHT22;30779;52.096;4.410;2022-08-01T06:18:08;18.00;99.90
45042;DHT22;30779;52.096;4.410;2022-08-01T06:21:08;18.10;99.90
45042;DHT22;30779;52.096;4.410;2022-08-01T06:24:09;18.10;99.90
45042;DHT22;30779;52.096;4.410;2022-08-01T06:27:09;18.20;99.90
45042;DHT22;30779;52.096;4.410;2022-08-01T06:30:10;18.20;99.90
45042;DHT22;30779;52.096;4.410;2022-08-01T06:33:11;18.20;99.90
45042;DHT22;30779;52.096;4.410;2022-08-01T06:36:11;18.20;99.90
45042;DHT22;30779;52.096;4.410;2022-08-01T06:39:12;18.20;99.90
45042;DHT22;30779;52.096;4.410;2022-08-01T06:42:13;18.20;99.90
45042;DHT22;30779;52.096;4.410;2022-08-01T06:45:15;18.10;99.90
45042;DHT22;30779;52.096;4.410;2022-08-01T06:48:16;18.20;99.90
45042;DHT22;30779;52.096;4.410;2022-08-01T06:51:17;18.20;99.90
45042;DHT22;30779;52.096;4.410;2022-08-01T06:54:20;18.20;99.90
45042;DHT22;30779;52.096;4.410;2022-08-01T06:57:21;18.10;99.90
45042;DHT22;30779;52.096;4.410;2022-08-01T07:00:23;18.20;99.90
45042;DHT22;30779;52.096;4.410;2022-08-01T07:03:24;18.20;99.90
45042;DHT22;30779;52.096;4.410;2022-08-01T07:06:25;18.20;99.90
45042;DHT22;30779;52.096;4.410;2022-08-01T07:09:26;18.30;99.90
45042;DHT22;30779;52.096;4.410;2022-08-01T07:12:27;18.40;99.90
45042;DHT22;30779;52.096;4.410;2022-08-01T07:15:27;18.60;99.90
45042;DHT22;30779;52.096;4.410;2022-08-01T07:18:28;18.60;99.90
45042;DHT22;30779;52.096;4.410;2022-08-01T07:21:29;18.60;99.90
45042;DHT22;30779;52.096;4.410;2022-08-01T07:24:29;18.80;99.90
45042;DHT22;30779;52.096;4.410;2022-08-01T07:27:30;18.70;99.90
45042;DHT22;30779;52.096;4.410;2022-08-01T07:30:30;18.50;99.90
45042;DHT22;30779;52.096;4.410;2022-08-01T07:33:31;18.40;99.90
45042;DHT22;30779;52.096;4.410;2022-08-01T07:36:32;18.40;99.90
45042;DHT22;30779;52.096;4.410;2022-08-01T07:39:32;18.40;99.90
45042;DHT22;30779;52.096;4.410;2022-08-01T07:42:33;18.50;99.90
45042;DHT22;30779;52.096;4.410;2022-08-01T07:45:34;18.50;99.90
45042;DHT22;30779;52.096;4.410;2022-08-01T07:48:34;18.70;99.90
45042;DHT22;30779;52.096;4.410;2022-08-01T07:51:35;18.80;99.90
45042;DHT22;30779;52.096;4.410;2022-08-01T07:54:36;19.00;99.90
45042;DHT22;30779;52.096;4.410;2022-08-01T07:57:37;19.20;99.90
45042;DHT22;30779;52.096;4.410;2022-08-01T08:00:38;19.50;99.90
45042;DHT22;30779;52.096;4.410;2022-08-01T08:03:39;19.50;99.90
45042;DHT22;30779;52.096;4.410;2022-08-01T08:06:39;19.70;99.90
45042;DHT22;30779;52.096;4.410;2022-08-01T08:09:41;19.70;99.90
45042;DHT22;30779;52.096;4.410;2022-08-01T08:12:42;19.80;99.90
45042;DHT22;30779;52.096;4.410;2022-08-01T08:15:42;19.70;99.90
45042;DHT22;30779;52.096;4.410;2022-08-01T08:18:43;19.80;99.90
45042;DHT22;30779;52.096;4.410;2022-08-01T08:21:44;19.80;99.90
45042;DHT22;30779;52.096;4.410;2022-08-01T08:24:45;19.60;99.90
45042;DHT22;30779;52.096;4.410;2022-08-01T08:27:46;19.60;99.90
45042;DHT22;30779;52.096;4.410;2022-08-01T08:30:46;19.60;99.90
45042;DHT22;30779;52.096;4.410;2022-08-01T08:33:47;19.40;99.90
45042;DHT22;30779;52.096;4.410;2022-08-01T08:36:49;19.40;99.90
45042;DHT22;30779;52.096;4.410;2022-08-01T08:39:49;19.40;99.90
45042;DHT22;30779;52.096;4.410;2022-08-01T08:42:50;19.30;99.90
45042;DHT22;30779;52.096;4.410;2022-08-01T08:45:52;19.40;99.90
45042;DHT22;30779;52.096;4.410;2022-08-01T08:48:56;19.40;99.90
45042;DHT22;30779;52.096;4.410;2022-08-01T08:52:01;19.50;99.90
45042;DHT22;30779;52.096;4.410;2022-08-01T08:55:03;19.60;99.90
45042;DHT22;30779;52.096;4.410;2022-08-01T08:58:04;19.70;99.90
45042;DHT22;30779;52.096;4.410;2022-08-01T09:01:06;19.80;99.90
45042;DHT22;30779;52.096;4.410;2022-08-01T09:04:09;19.90;99.90
45042;DHT22;30779;52.096;4.410;2022-08-01T09:07:09;20.10;99.90
45042;DHT22;30779;52.096;4.410;2022-08-01T09:10:12;20.20;99.90
45042;DHT22;30779;52.096;4.410;2022-08-01T09:13:14;20.10;99.90
45042;DHT22;30779;52.096;4.410;2022-08-01T09:16:16;20.20;99.90
45042;DHT22;30779;52.096;4.410;2022-08-01T09:19:20;20.40;99.90
45042;DHT22;30779;52.096;4.410;2022-08-01T09:22:22;20.60;99.90
45042;DHT22;30779;52.096;4.410;2022-08-01T09:25:23;20.70;99.90
45042;DHT22;30779;52.096;4.410;2022-08-01T09:28:29;20.80;99.90
45042;DHT22;30779;52.096;4.410;2022-08-01T09:31:42;20.80;99.90
45042;DHT22;30779;52.096;4.410;2022-08-01T09:34:43;20.80;99.90
45042;DHT22;30779;52.096;4.410;2022-08-01T09:37:43;20.80;99.90
45042;DHT22;30779;52.096;4.410;2022-08-01T09:40:58;20.80;99.90
45042;DHT22;30779;52.096;4.410;2022-08-01T09:43:59;20.90;99.90
45042;DHT22;30779;52.096;4.410;2022-08-01T09:46:59;21.10;99.90
45042;DHT22;30779;52.096;4.410;2022-08-01T09:50:00;21.20;99.90
45042;DHT22;30779;52.096;4.410;2022-08-01T09:53:01;21.20;99.90
45042;DHT22;30779;52.096;4.410;2022-08-01T09:56:12;21.20;99.90
45042;DHT22;30779;52.096;4.410;2022-08-01T09:59:13;21.30;99.90
45042;DHT22;30779;52.096;4.410;2022-08-01T10:02:30;21.40;99.90
45042;DHT22;30779;52.096;4.410;2022-08-01T10:05:32;21.60;99.90
45042;DHT22;30779;52.096;4.410;2022-08-01T10:08:46;21.80;99.90
45042;DHT22;30779;52.096;4.410;2022-08-01T10:11:47;21.80;99.90
45042;DHT22;30779;52.096;4.410;2022-08-01T10:14:49;21.50;99.90
45042;DHT22;30779;52.096;4.410;2022-08-01T10:17:54;21.40;99.90
45042;DHT22;30779;52.096;4.410;2022-08-01T10:20:55;21.50;99.90
45042;DHT22;30779;52.096;4.410;2022-08-01T10:23:57;21.80;99.90
45042;DHT22;30779;52.096;4.410;2022-08-01T10:27:03;21.80;99.90
45042;DHT22;30779;52.096;4.410;2022-08-01T10:30:05;21.80;99.90
45042;DHT22;30779;52.096;4.410;2022-08-01T10:33:09;21.80;99.90
45042;DHT22;30779;52.096;4.410;2022-08-01T10:36:10;21.70;99.90
45042;DHT22;30779;52.096;4.410;2022-08-01T10:39:12;21.60;99.90
45042;DHT22;30779;52.096;4.410;2022-08-01T10:42:12;21.60;99.90
45042;DHT22;30779;52.096;4.410;2022-08-01T10:45:14;21.70;99.90
45042;DHT22;30779;52.096;4.410;2022-08-01T10:48:29;21.70;99.90
45042;DHT22;30779;52.096;4.410;2022-08-01T10:51:34;21.80;99.90
45042;DHT22;30779;52.096;4.410;2022-08-01T10:54:40;22.50;99.90
45042;DHT22;30779;52.096;4.410;2022-08-01T10:57:46;22.60;99.90
45042;DHT22;30779;52.096;4.410;2022-08-01T11:00:47;22.50;99.90
45042;DHT22;30779;52.096;4.410;2022-08-01T11:07:15;23.10;99.90
45042;DHT22;30779;52.096;4.410;2022-08-01T11:10:41;23.20;99.90
45042;DHT22;30779;52.096;4.410;2022-08-01T11:14:04;22.70;99.90
45042;DHT22;30779;52.096;4.410;2022-08-01T11:17:31;22.60;99.90
45042;DHT22;30779;52.096;4.410;2022-08-01T11:20:35;23.20;99.90
45042;DHT22;30779;52.096;4.410;2022-08-01T11:23:48;23.20;99.90
45042;DHT22;30779;52.096;4.410;2022-08-01T11:30:27;24.00;99.90
45042;DHT22;30779;52.096;4.410;2022-08-01T11:36:42;24.60;99.90
45042;DHT22;30779;52.096;4.410;2022-08-01T11:39:43;24.10;99.90
45042;DHT22;30779;52.096;4.410;2022-08-01T11:42:43;23.50;99.90
45042;DHT22;30779;52.096;4.410;2022-08-01T11:45:52;23.40;99.90
45042;DHT22;30779;52.096;4.410;2022-08-01T11:52:29;23.30;99.90
45042;DHT22;30779;52.096;4.410;2022-08-01T11:55:30;23.20;99.90
45042;DHT22;30779;52.096;4.410;2022-08-01T11:58:31;23.40;99.90
45042;DHT22;30779;52.096;4.410;2022-08-01T12:01:34;23.10;99.90
45042;DHT22;30779;52.096;4.410;2022-08-01T12:04:45;23.30;99.90
45042;DHT22;30779;52.096;4.410;2022-08-01T12:07:50;23.30;99.90
45042;DHT22;30779;52.096;4.410;2022-08-01T12:10:51;22.90;99.90
45042;DHT22;30779;52.096;4.410;2022-08-01T12:13:52;23.10;99.90
45042;DHT22;30779;52.096;4.410;2022-08-01T12:16:54;23.40;99.90
45042;DHT22;30779;52.096;4.410;2022-08-01T12:19:55;23.40;99.90
45042;DHT22;30779;52.096;4.410;2022-08-01T12:22:56;23.60;99.90
45042;DHT22;30779;52.096;4.410;2022-08-01T12:25:57;23.70;99.90
45042;DHT22;30779;52.096;4.410;2022-08-01T12:28:58;24.00;99.90
45042;DHT22;30779;52.096;4.410;2022-08-01T12:31:59;24.20;99.90
45042;DHT22;30779;52.096;4.410;2022-08-01T12:35:08;24.10;99.90
45042;DHT22;30779;52.096;4.410;2022-08-01T12:38:17;23.80;99.90
45042;DHT22;30779;52.096;4.410;2022-08-01T12:41:18;23.80;99.90
45042;DHT22;30779;52.096;4.410;2022-08-01T12:44:19;23.70;99.90
45042;DHT22;30779;52.096;4.410;2022-08-01T12:47:20;23.70;99.90
45042;DHT22;30779;52.096;4.410;2022-08-01T12:50:23;23.60;99.90
45042;DHT22;30779;52.096;4.410;2022-08-01T12:53:26;23.80;99.90
45042;DHT22;30779;52.096;4.410;2022-08-01T12:56:33;24.00;99.90
45042;DHT22;30779;52.096;4.410;2022-08-01T12:59:34;24.00;99.90
45042;DHT22;30779;52.096;4.410;2022-08-01T13:02:35;24.10;99.90
45042;DHT22;30779;52.096;4.410;2022-08-01T13:06:08;23.70;99.90
45042;DHT22;30779;52.096;4.410;2022-08-01T13:09:10;23.60;99.90
45042;DHT22;30779;52.096;4.410;2022-08-01T13:12:12;23.80;99.90
45042;DHT22;30779;52.096;4.410;2022-08-01T13:15:22;23.90;99.90
45042;DHT22;30779;52.096;4.410;2022-08-01T13:18:30;24.00;99.90
45042;DHT22;30779;52.096;4.410;2022-08-01T13:21:32;23.90;99.90
45042;DHT22;30779;52.096;4.410;2022-08-01T13:24:33;24.10;99.90
45042;DHT22;30779;52.096;4.410;2022-08-01T13:27:33;24.30;99.90
45042;DHT22;30779;52.096;4.410;2022-08-01T13:30:34;24.40;97.20
45042;DHT22;30779;52.096;4.410;2022-08-01T13:33:46;24.70;97.50
45042;DHT22;30779;52.096;4.410;2022-08-01T13:36:47;24.90;97.80
45042;DHT22;30779;52.096;4.410;2022-08-01T13:39:47;25.00;95.40
45042;DHT22;30779;52.096;4.410;2022-08-01T13:42:49;25.00;97.60
45042;DHT22;30779;52.096;4.410;2022-08-01T13:45:49;24.80;99.60
45042;DHT22;30779;52.096;4.410;2022-08-01T13:48:50;24.70;98.00
45042;DHT22;30779;52.096;4.410;2022-08-01T13:51:51;24.70;96.90
45042;DHT22;30779;52.096;4.410;2022-08-01T13:54:51;24.60;98.40
45042;DHT22;30779;52.096;4.410;2022-08-01T13:57:52;24.60;99.90
45042;DHT22;30779;52.096;4.410;2022-08-01T14:00:53;24.60;97.50
45042;DHT22;30779;52.096;4.410;2022-08-01T14:03:54;24.50;96.40
45042;DHT22;30779;52.096;4.410;2022-08-01T14:06:54;24.10;97.60
45042;DHT22;30779;52.096;4.410;2022-08-01T14:09:55;23.70;98.50
45042;DHT22;30779;52.096;4.410;2022-08-01T14:12:55;24.10;99.80
45042;DHT22;30779;52.096;4.410;2022-08-01T14:15:57;24.70;96.60
45042;DHT22;30779;52.096;4.410;2022-08-01T14:18:58;25.00;96.20
45042;DHT22;30779;52.096;4.410;2022-08-01T14:21:59;25.10;95.60
45042;DHT22;30779;52.096;4.410;2022-08-01T14:24:59;25.00;94.10
45042;DHT22;30779;52.096;4.410;2022-08-01T14:28:00;24.80;95.00
45042;DHT22;30779;52.096;4.410;2022-08-01T14:31:00;24.80;93.20
45042;DHT22;30779;52.096;4.410;2022-08-01T14:34:01;24.70;93.90
45042;DHT22;30779;52.096;4.410;2022-08-01T14:37:02;24.70;93.90
45042;DHT22;30779;52.096;4.410;2022-08-01T14:40:03;24.70;93.30
45042;DHT22;30779;52.096;4.410;2022-08-01T14:43:07;24.80;92.80
45042;DHT22;30779;52.096;4.410;2022-08-01T14:46:08;24.70;94.20
45042;DHT22;30779;52.096;4.410;2022-08-01T14:49:10;24.90;94.20
45042;DHT22;30779;52.096;4.410;2022-08-01T14:52:11;24.80;93.60
45042;DHT22;30779;52.096;4.410;2022-08-01T14:55:12;24.70;93.90
45042;DHT22;30779;52.096;4.410;2022-08-01T14:58:13;24.70;93.80
45042;DHT22;30779;52.096;4.410;2022-08-01T15:01:14;24.50;93.40
45042;DHT22;30779;52.096;4.410;2022-08-01T15:04:15;24.60;96.20
45042;DHT22;30779;52.096;4.410;2022-08-01T15:07:17;24.70;93.40
45042;DHT22;30779;52.096;4.410;2022-08-01T15:10:18;24.80;93.20
45042;DHT22;30779;52.096;4.410;2022-08-01T15:13:19;24.70;93.30
45042;DHT22;30779;52.096;4.410;2022-08-01T15:16:20;24.80;92.00
45042;DHT22;30779;52.096;4.410;2022-08-01T15:19:21;24.80;92.90
45042;DHT22;30779;52.096;4.410;2022-08-01T15:22:23;24.90;91.90
45042;DHT22;30779;52.096;4.410;2022-08-01T15:25:23;24.90;92.40
45042;DHT22;30779;52.096;4.410;2022-08-01T15:28:24;25.00;92.30
45042;DHT22;30779;52.096;4.410;2022-08-01T15:31:25;25.00;91.40
45042;DHT22;30779;52.096;4.410;2022-08-01T15:34:26;24.70;91.60
45042;DHT22;30779;52.096;4.410;2022-08-01T15:37:26;24.60;92.70
45042;DHT22;30779;52.096;4.410;2022-08-01T15:40:27;24.60;91.20
45042;DHT22;30779;52.096;4.410;2022-08-01T15:43:28;24.70;91.80
45042;DHT22;30779;52.096;4.410;2022-08-01T15:46:29;24.60;91.10
45042;DHT22;30779;52.096;4.410;2022-08-01T15:49:30;24.60;90.90
45042;DHT22;30779;52.096;4.410;2022-08-01T15:52:31;24.30;92.60
45042;DHT22;30779;52.096;4.410;2022-08-01T15:55:34;24.40;92.20
45042;DHT22;30779;52.096;4.410;2022-08-01T15:58:35;24.60;93.10
45042;DHT22;30779;52.096;4.410;2022-08-01T16:01:36;24.70;91.60
45042;DHT22;30779;52.096;4.410;2022-08-01T16:04:38;24.60;91.20
45042;DHT22;30779;52.096;4.410;2022-08-01T16:07:38;24.40;90.70
45042;DHT22;30779;52.096;4.410;2022-08-01T16:10:39;24.40;90.40
45042;DHT22;30779;52.096;4.410;2022-08-01T16:13:40;24.20;90.60
45042;DHT22;30779;52.096;4.410;2022-08-01T16:16:41;24.20;91.10
45042;DHT22;30779;52.096;4.410;2022-08-01T16:19:42;24.20;91.10
45042;DHT22;30779;52.096;4.410;2022-08-01T16:22:42;24.20;90.00
45042;DHT22;30779;52.096;4.410;2022-08-01T16:25:43;24.10;91.00
45042;DHT22;30779;52.096;4.410;2022-08-01T16:28:44;24.10;90.70
45042;DHT22;30779;52.096;4.410;2022-08-01T16:31:47;24.00;90.20
45042;DHT22;30779;52.096;4.410;2022-08-01T16:34:48;24.00;90.80
45042;DHT22;30779;52.096;4.410;2022-08-01T16:37:49;23.90;91.00
45042;DHT22;30779;52.096;4.410;2022-08-01T16:40:49;23.80;91.10
45042;DHT22;30779;52.096;4.410;2022-08-01T16:43:51;23.80;91.20
45042;DHT22;30779;52.096;4.410;2022-08-01T16:46:51;23.80;90.70
45042;DHT22;30779;52.096;4.410;2022-08-01T16:49:52;23.90;91.80
45042;DHT22;30779;52.096;4.410;2022-08-01T16:52:52;23.60;90.20
45042;DHT22;30779;52.096;4.410;2022-08-01T16:55:53;23.50;91.50
45042;DHT22;30779;52.096;4.410;2022-08-01T16:58:54;23.50;91.50
45042;DHT22;30779;52.096;4.410;2022-08-01T17:01:55;23.50;91.30
45042;DHT22;30779;52.096;4.410;2022-08-01T17:04:55;23.50;91.20
45042;DHT22;30779;52.096;4.410;2022-08-01T17:07:56;23.40;93.50
45042;DHT22;30779;52.096;4.410;2022-08-01T17:10:56;23.30;91.80
45042;DHT22;30779;52.096;4.410;2022-08-01T17:13:57;23.10;92.20
45042;DHT22;30779;52.096;4.410;2022-08-01T17:16:58;23.10;92.70
45042;DHT22;30779;52.096;4.410;2022-08-01T17:19:59;23.00;93.20
45042;DHT22;30779;52.096;4.410;2022-08-01T17:23:00;22.90;92.80
45042;DHT22;30779;52.096;4.410;2022-08-01T17:26:01;22.80;93.30
45042;DHT22;30779;52.096;4.410;2022-08-01T17:29:02;22.60;94.10
45042;DHT22;30779;52.096;4.410;2022-08-01T17:32:02;22.50;93.50
45042;DHT22;30779;52.096;4.410;2022-08-01T17:35:03;22.40;94.20
45042;DHT22;30779;52.096;4.410;2022-08-01T17:38:04;22.30;94.20
45042;DHT22;30779;52.096;4.410;2022-08-01T17:41:05;22.20;94.20
45042;DHT22;30779;52.096;4.410;2022-08-01T17:44:06;22.10;95.60
45042;DHT22;30779;52.096;4.410;2022-08-01T17:47:07;22.00;96.60
45042;DHT22;30779;52.096;4.410;2022-08-01T17:50:10;21.90;96.10
45042;DHT22;30779;52.096;4.410;2022-08-01T17:53:11;21.80;95.40
45042;DHT22;30779;52.096;4.410;2022-08-01T17:56:12;21.70;96.70
45042;DHT22;30779;52.096;4.410;2022-08-01T17:59:13;21.60;97.30
45042;DHT22;30779;52.096;4.410;2022-08-01T18:02:13;21.50;98.00
45042;DHT22;30779;52.096;4.410;2022-08-01T18:05:14;21.40;97.40
45042;DHT22;30779;52.096;4.410;2022-08-01T18:08:15;21.30;98.40
45042;DHT22;30779;52.096;4.410;2022-08-01T18:11:15;21.20;98.70
45042;DHT22;30779;52.096;4.410;2022-08-01T18:14:16;21.00;99.00
45042;DHT22;30779;52.096;4.410;2022-08-01T18:17:17;21.00;99.90
45042;DHT22;30779;52.096;4.410;2022-08-01T18:20:17;20.90;99.90
45042;DHT22;30779;52.096;4.410;2022-08-01T18:23:18;20.80;99.90
45042;DHT22;30779;52.096;4.410;2022-08-01T18:26:20;20.70;99.30
45042;DHT22;30779;52.096;4.410;2022-08-01T18:29:21;20.60;99.00
45042;DHT22;30779;52.096;4.410;2022-08-01T18:32:22;20.60;99.90
45042;DHT22;30779;52.096;4.410;2022-08-01T18:35:24;20.50;99.90
45042;DHT22;30779;52.096;4.410;2022-08-01T18:38:25;20.40;99.90
45042;DHT22;30779;52.096;4.410;2022-08-01T18:41:25;20.40;99.90
45042;DHT22;30779;52.096;4.410;2022-08-01T18:44:26;20.30;99.90
45042;DHT22;30779;52.096;4.410;2022-08-01T18:47:29;20.30;99.90
45042;DHT22;30779;52.096;4.410;2022-08-01T18:53:30;20.10;99.90
45042;DHT22;30779;52.096;4.410;2022-08-01T18:56:31;20.10;99.90
45042;DHT22;30779;52.096;4.410;2022-08-01T18:59:32;20.00;99.90
45042;DHT22;30779;52.096;4.410;2022-08-01T19:02:33;20.00;99.90
45042;DHT22;30779;52.096;4.410;2022-08-01T19:05:33;19.90;99.90
45042;DHT22;30779;52.096;4.410;2022-08-01T19:08:34;19.90;99.90
45042;DHT22;30779;52.096;4.410;2022-08-01T19:11:37;19.90;99.90
45042;DHT22;30779;52.096;4.410;2022-08-01T19:14:37;19.70;99.90
45042;DHT22;30779;52.096;4.410;2022-08-01T19:17:38;19.60;99.90
45042;DHT22;30779;52.096;4.410;2022-08-01T19:23:42;19.50;99.90
45042;DHT22;30779;52.096;4.410;2022-08-01T19:27:06;19.40;99.90
45042;DHT22;30779;52.096;4.410;2022-08-01T19:48:24;19.10;99.90
45042;DHT22;30779;52.096;4.410;2022-08-01T20:43:11;18.20;99.90
